Time;durP1;ratioP1;P1;durP2;ratioP2;P2;SDS_P1;SDS_P2;PMS_P1;PMS_P2;Temp;Humidity;BMP_temperature;BMP_pressure;BME280_temperature;BME280_humidity;BME280_pressure;Samples;Min_cycle;Max_cycle;Signal;HPM_P1;HPM_P2
2022/03/18 00:00:55;;;;;;;54.97;41.27;;;7.30;99.90;;;;;;5096945;28;20196;-74
2022/03/18 00:03:22;;;;;;;54.93;42.03;;;7.30;99.90;;;;;;5095787;28;20641;-73
2022/03/18 00:05:48;;;;;;;51.57;40.67;;;7.30;99.90;;;;;;5095725;28;20197;-74
2022/03/18 00:08:15;;;;;;;55.43;40.53;;;7.30;99.90;;;;;;5095336;28;20199;-76
2022/03/18 00:10:42;;;;;;;54.03;43.20;;;7.30;99.90;;;;;;5095346;28;20197;-76
2022/03/18 00:13:10;;;;;;;51.13;40.83;;;7.30;99.90;;;;;;5095169;28;20200;-76
2022/03/18 00:15:37;;;;;;;56.13;43.17;;;7.30;99.90;;;;;;5095065;28;20537;-76
2022/03/18 00:18:03;;;;;;;54.73;41.80;;;7.30;99.90;;;;;;5095069;28;20231;-75
2022/03/18 00:20:30;;;;;;;53.70;43.43;;;7.30;99.90;;;;;;5095349;28;20208;-75
2022/03/18 00:22:57;;;;;;;53.30;41.57;;;7.20;99.90;;;;;;5094856;28;20220;-74
2022/03/18 00:25:23;;;;;;;52.00;42.10;;;7.20;99.90;;;;;;5095091;28;20199;-75
2022/03/18 00:27:50;;;;;;;59.03;43.13;;;7.20;99.90;;;;;;5095046;28;20496;-74
2022/03/18 00:30:19;;;;;;;53.17;42.43;;;7.30;99.90;;;;;;5094913;28;20197;-76
2022/03/18 00:32:49;;;;;;;54.70;42.27;;;7.20;99.90;;;;;;5094860;28;20207;-76
2022/03/18 00:35:16;;;;;;;56.10;42.70;;;7.20;99.90;;;;;;5094869;28;20233;-76
2022/03/18 00:37:42;;;;;;;56.47;42.83;;;7.20;99.90;;;;;;5095114;28;20192;-73
2022/03/18 00:40:10;;;;;;;59.30;45.17;;;7.20;99.90;;;;;;5094658;28;20203;-74
2022/03/18 00:42:37;;;;;;;55.53;42.90;;;7.20;99.90;;;;;;5094406;28;20213;-76
2022/03/18 00:45:05;;;;;;;57.83;43.37;;;7.20;99.90;;;;;;5094777;28;20206;-75
2022/03/18 00:53:01;;;;;;;55.67;41.90;;;7.20;99.90;;;;;;5094411;28;20195;-74
2022/03/18 00:55:28;;;;;;;56.37;43.63;;;7.10;99.90;;;;;;5094562;28;20240;-76
2022/03/18 00:57:55;;;;;;;60.03;42.60;;;7.10;99.90;;;;;;5094545;28;20204;-76
2022/03/18 01:00:22;;;;;;;57.20;43.87;;;7.10;99.90;;;;;;5095207;28;20643;-74
2022/03/18 01:02:50;;;;;;;59.73;44.90;;;7.10;99.90;;;;;;5094680;28;20224;-74
2022/03/18 01:05:17;;;;;;;56.63;43.60;;;7.10;99.90;;;;;;5094235;28;20221;-76
2022/03/18 01:07:43;;;;;;;58.00;44.13;;;7.00;99.90;;;;;;5094048;28;20204;-75
2022/03/18 01:10:10;;;;;;;61.17;45.27;;;7.10;99.90;;;;;;5093994;28;20653;-76
2022/03/18 01:12:37;;;;;;;59.03;43.90;;;7.00;99.90;;;;;;5093970;28;20665;-76
2022/03/18 01:15:04;;;;;;;60.93;43.63;;;7.00;99.90;;;;;;5094128;28;20241;-76
2022/03/18 01:17:32;;;;;;;58.37;43.17;;;7.00;99.90;;;;;;5093835;28;20209;-76
2022/03/18 01:20:00;;;;;;;57.53;43.20;;;7.00;99.90;;;;;;5093651;28;20285;-76
2022/03/18 01:22:27;;;;;;;54.20;43.13;;;7.00;99.90;;;;;;5093748;28;20533;-76
2022/03/18 01:24:54;;;;;;;60.00;42.60;;;7.00;99.90;;;;;;5094890;28;20243;-76
2022/03/18 01:27:20;;;;;;;58.93;41.27;;;7.10;99.90;;;;;;5094735;28;20196;-75
2022/03/18 01:29:47;;;;;;;55.23;41.13;;;7.00;99.90;;;;;;5093833;28;20193;-75
2022/03/18 01:32:14;;;;;;;56.67;42.33;;;7.00;99.90;;;;;;5093711;28;20207;-74
2022/03/18 01:34:41;;;;;;;58.63;41.53;;;7.00;99.90;;;;;;5094170;28;20196;-75
2022/03/18 01:37:09;;;;;;;54.83;41.50;;;6.90;99.90;;;;;;5093975;28;20271;-74
2022/03/18 01:39:36;;;;;;;51.47;38.33;;;6.90;99.90;;;;;;5094339;28;20192;-74
2022/03/18 01:42:03;;;;;;;53.10;40.00;;;6.90;99.90;;;;;;5093632;28;20663;-76
2022/03/18 01:44:30;;;;;;;54.10;39.27;;;6.90;99.90;;;;;;5093752;28;20228;-74
2022/03/18 01:46:56;;;;;;;56.27;40.57;;;6.90;99.90;;;;;;5093967;28;20196;-74
2022/03/18 01:49:23;;;;;;;57.07;40.53;;;6.90;99.90;;;;;;5093282;28;20204;-74
2022/03/18 01:51:49;;;;;;;54.20;38.87;;;6.80;99.90;;;;;;5093777;28;20196;-74
2022/03/18 01:57:02;;;;;;;49.53;36.07;;;6.90;99.90;;;;;;5093613;28;20195;-74
2022/03/18 01:59:29;;;;;;;50.80;36.27;;;6.80;99.90;;;;;;5093506;28;20560;-75
2022/03/18 02:01:56;;;;;;;55.20;37.13;;;6.80;99.90;;;;;;5093261;28;20552;-75
2022/03/18 02:04:22;;;;;;;54.33;38.17;;;6.80;99.90;;;;;;5093627;28;20223;-75
2022/03/18 02:06:50;;;;;;;51.20;36.23;;;6.80;99.90;;;;;;5093373;28;20196;-75
2022/03/18 02:09:19;;;;;;;50.73;36.37;;;6.80;99.90;;;;;;5093741;28;20211;-75
2022/03/18 02:11:47;;;;;;;49.80;35.60;;;6.70;99.90;;;;;;5093225;28;20595;-75
2022/03/18 02:14:14;;;;;;;52.77;36.67;;;6.80;99.90;;;;;;5093110;28;20277;-74
2022/03/18 02:16:41;;;;;;;51.67;35.77;;;6.80;99.90;;;;;;5093561;28;20200;-75
2022/03/18 02:19:08;;;;;;;47.83;34.60;;;6.80;99.90;;;;;;5092924;28;20588;-74
2022/03/18 02:21:36;;;;;;;50.70;35.57;;;6.70;99.90;;;;;;5093466;28;20289;-74
2022/03/18 02:24:05;;;;;;;48.87;35.43;;;6.80;99.90;;;;;;5093307;28;20227;-74
2022/03/18 02:26:32;;;;;;;47.70;34.47;;;6.70;99.90;;;;;;5093266;28;20614;-74
2022/03/18 02:28:59;;;;;;;49.00;34.30;;;6.70;99.90;;;;;;5093205;28;20575;-75
2022/03/18 02:31:29;;;;;;;45.63;33.17;;;6.70;99.90;;;;;;5093339;28;20207;-74
2022/03/18 02:33:56;;;;;;;49.47;34.63;;;6.70;99.90;;;;;;5093547;28;20245;-75
2022/03/18 02:36:23;;;;;;;44.33;32.87;;;6.70;99.90;;;;;;5093349;28;20261;-75
2022/03/18 02:38:49;;;;;;;44.90;32.97;;;6.70;99.90;;;;;;5093212;28;20262;-75
2022/03/18 02:41:17;;;;;;;44.70;32.97;;;6.60;99.90;;;;;;5092841;28;20192;-74
2022/03/18 02:43:44;;;;;;;44.50;33.50;;;6.60;99.90;;;;;;5093285;28;20232;-75
2022/03/18 02:46:10;;;;;;;45.53;33.90;;;6.60;99.90;;;;;;5093620;28;20203;-74
2022/03/18 02:48:37;;;;;;;45.73;32.73;;;6.60;99.90;;;;;;5093295;28;20200;-75
2022/03/18 02:51:04;;;;;;;47.07;34.03;;;6.60;99.90;;;;;;5093009;28;20196;-75
2022/03/18 02:53:30;;;;;;;47.90;33.37;;;6.60;99.90;;;;;;5092930;28;20208;-75
2022/03/18 02:55:57;;;;;;;45.60;32.97;;;6.60;99.90;;;;;;5092845;28;20196;-75
2022/03/18 02:58:25;;;;;;;45.93;33.47;;;6.60;99.90;;;;;;5092888;28;20192;-74
2022/03/18 03:00:53;;;;;;;48.27;33.80;;;6.60;99.90;;;;;;5093808;28;20197;-74
2022/03/18 03:03:19;;;;;;;49.10;33.83;;;6.60;99.90;;;;;;5097343;28;20227;-75
2022/03/18 03:08:31;;;;;;;44.90;31.53;;;6.60;99.90;;;;;;5099224;28;20201;-76
2022/03/18 03:10:58;;;;;;;47.00;32.90;;;6.60;99.90;;;;;;5100679;28;20196;-76
2022/03/18 03:13:26;;;;;;;45.67;31.77;;;6.60;99.90;;;;;;5098816;28;20204;-75
2022/03/18 03:15:53;;;;;;;45.87;32.30;;;6.60;99.90;;;;;;5097516;28;20563;-75
2022/03/18 03:18:19;;;;;;;47.57;33.37;;;6.60;99.90;;;;;;5096285;28;20699;-73
2022/03/18 03:20:46;;;;;;;49.27;33.83;;;6.60;99.90;;;;;;5096198;28;20203;-74
2022/03/18 03:23:13;;;;;;;44.47;31.87;;;6.60;99.90;;;;;;5097949;28;20521;-74
2022/03/18 03:25:40;;;;;;;45.63;32.23;;;6.60;99.90;;;;;;5100079;28;20703;-75
2022/03/18 03:28:06;;;;;;;43.70;32.13;;;6.60;99.90;;;;;;5102266;28;20231;-75
2022/03/18 03:30:34;;;;;;;43.93;30.77;;;6.60;99.90;;;;;;5098577;28;20254;-76
2022/03/18 03:33:01;;;;;;;44.40;31.10;;;6.60;99.90;;;;;;5100645;28;20263;-77
2022/03/18 03:35:28;;;;;;;46.63;31.67;;;6.60;99.90;;;;;;5097753;28;20208;-75
2022/03/18 03:37:54;;;;;;;44.40;30.57;;;6.60;99.90;;;;;;5096996;28;20238;-75
2022/03/18 03:40:21;;;;;;;43.23;31.57;;;6.60;99.90;;;;;;5096562;28;20196;-75
2022/03/18 03:42:48;;;;;;;43.77;31.17;;;6.60;99.90;;;;;;5096507;28;20201;-75
2022/03/18 03:45:15;;;;;;;42.90;30.33;;;6.60;99.90;;;;;;5096700;28;20253;-75
2022/03/18 03:47:43;;;;;;;45.17;31.53;;;6.60;99.90;;;;;;5096097;28;20283;-75
2022/03/18 03:50:11;;;;;;;46.90;31.70;;;6.60;99.90;;;;;;5095811;28;20721;-75
2022/03/18 03:52:38;;;;;;;42.50;30.20;;;6.60;99.90;;;;;;5095857;28;20654;-74
2022/03/18 03:55:06;;;;;;;44.13;30.30;;;6.60;99.90;;;;;;5096236;28;20258;-75
2022/03/18 03:57:33;;;;;;;47.73;30.50;;;6.60;99.90;;;;;;5095815;28;20196;-75
2022/03/18 04:00:00;;;;;;;45.67;30.70;;;6.60;99.90;;;;;;5095487;28;20594;-75
2022/03/18 04:02:27;;;;;;;42.90;30.20;;;6.60;99.90;;;;;;5095597;28;20200;-75
2022/03/18 04:04:56;;;;;;;45.63;31.40;;;6.60;99.90;;;;;;5095569;28;20232;-75
2022/03/18 04:07:23;;;;;;;41.60;29.33;;;6.60;99.90;;;;;;5095928;28;20232;-74
2022/03/18 04:09:51;;;;;;;43.70;29.63;;;6.60;99.90;;;;;;5095654;28;20233;-74
2022/03/18 04:12:18;;;;;;;40.93;29.47;;;6.60;99.90;;;;;;5095507;28;20193;-75
2022/03/18 04:14:44;;;;;;;45.23;30.43;;;6.50;99.90;;;;;;5095543;28;20224;-75
2022/03/18 04:17:11;;;;;;;46.23;30.00;;;6.60;99.90;;;;;;5095185;28;20721;-75
2022/03/18 04:19:38;;;;;;;40.90;29.87;;;6.50;99.90;;;;;;5095400;28;20641;-75
2022/03/18 04:22:06;;;;;;;43.73;30.40;;;6.50;99.90;;;;;;5095588;28;20201;-75
2022/03/18 04:24:33;;;;;;;41.07;29.40;;;6.50;99.90;;;;;;5095443;28;20225;-75
2022/03/18 04:27:00;;;;;;;42.33;30.03;;;6.50;99.90;;;;;;5095388;28;20204;-75
2022/03/18 04:29:27;;;;;;;42.63;30.10;;;6.50;99.90;;;;;;5095585;28;20200;-74
2022/03/18 04:31:54;;;;;;;40.37;29.03;;;6.50;99.90;;;;;;5095205;28;20201;-74
2022/03/18 04:34:20;;;;;;;45.40;28.83;;;6.50;99.90;;;;;;5095255;28;20196;-74
2022/03/18 04:36:47;;;;;;;43.27;29.50;;;6.50;99.90;;;;;;5095164;28;20631;-75
2022/03/18 04:39:15;;;;;;;40.40;28.63;;;6.50;99.90;;;;;;5094992;28;20192;-75
2022/03/18 04:41:42;;;;;;;45.20;29.70;;;6.50;99.90;;;;;;5094896;28;20192;-75
2022/03/18 04:44:08;;;;;;;44.50;30.30;;;6.50;99.90;;;;;;5094583;28;20221;-75
2022/03/18 04:46:35;;;;;;;43.20;29.93;;;6.50;99.90;;;;;;5094623;28;20729;-75
2022/03/18 04:49:02;;;;;;;43.90;29.17;;;6.50;99.90;;;;;;5094560;28;20683;-75
2022/03/18 04:51:30;;;;;;;45.43;29.23;;;6.40;99.90;;;;;;5094754;28;20196;-74
2022/03/18 04:53:57;;;;;;;42.33;28.33;;;6.40;99.90;;;;;;5095254;28;20207;-75
2022/03/18 04:59:09;;;;;;;40.33;27.93;;;6.40;99.90;;;;;;5095438;28;20582;-74
2022/03/18 05:01:35;;;;;;;43.40;28.83;;;6.40;99.90;;;;;;5094889;28;20254;-74
2022/03/18 05:04:02;;;;;;;42.67;28.47;;;6.40;99.90;;;;;;5094719;28;20216;-75
2022/03/18 05:06:29;;;;;;;42.40;28.07;;;6.40;99.90;;;;;;5094987;28;20265;-74
2022/03/18 05:08:56;;;;;;;42.00;28.77;;;6.30;99.90;;;;;;5094674;28;20212;-74
2022/03/18 05:11:22;;;;;;;40.20;27.93;;;6.30;99.90;;;;;;5094642;28;20648;-74
2022/03/18 05:13:51;;;;;;;40.63;27.33;;;6.20;99.90;;;;;;5095547;28;20200;-75
2022/03/18 05:16:18;;;;;;;39.77;27.80;;;6.30;99.90;;;;;;5095071;28;20243;-74
2022/03/18 05:18:45;;;;;;;41.23;26.00;;;6.30;99.90;;;;;;5095014;28;20250;-75
2022/03/18 05:21:11;;;;;;;39.57;26.40;;;6.30;99.90;;;;;;5094936;28;20200;-75
2022/03/18 05:23:38;;;;;;;41.50;27.43;;;6.20;99.90;;;;;;5093614;28;20201;-75
2022/03/18 05:26:05;;;;;;;40.70;28.17;;;6.20;99.90;;;;;;5094672;28;20196;-74
2022/03/18 05:28:32;;;;;;;38.63;26.70;;;6.30;99.90;;;;;;5094561;28;20550;-75
2022/03/18 05:31:00;;;;;;;39.53;26.73;;;6.30;99.90;;;;;;5090592;28;20261;-74
2022/03/18 05:33:27;;;;;;;37.63;26.53;;;6.30;99.90;;;;;;5092006;28;20849;-74
2022/03/18 05:35:54;;;;;;;40.60;27.13;;;6.30;99.90;;;;;;5094358;28;20204;-75
2022/03/18 05:38:21;;;;;;;40.50;26.77;;;6.30;99.90;;;;;;5094025;28;20196;-74
2022/03/18 05:40:47;;;;;;;37.10;26.03;;;6.30;99.90;;;;;;5093888;28;20249;-75
2022/03/18 05:43:14;;;;;;;38.43;27.53;;;6.20;99.90;;;;;;5094518;28;20245;-74
2022/03/18 05:45:41;;;;;;;42.03;27.77;;;6.20;99.90;;;;;;5094324;28;20277;-74
2022/03/18 05:48:09;;;;;;;37.40;27.20;;;6.30;99.90;;;;;;5094174;28;20200;-75
2022/03/18 05:50:36;;;;;;;41.10;26.67;;;6.30;99.90;;;;;;5094443;28;20200;-74
2022/03/18 05:53:03;;;;;;;39.80;25.60;;;6.30;99.90;;;;;;5093313;28;20197;-75
2022/03/18 05:56:52;;;;;;;39.93;26.93;;;6.30;99.90;;;;;;5093768;28;20652;-74
2022/03/18 05:58:18;;;;;;;38.67;26.87;;;6.30;99.90;;;;;;5093447;28;20239;-73
2022/03/18 06:00:45;;;;;;;36.17;25.50;;;6.30;99.90;;;;;;5093291;28;20192;-75
2022/03/18 06:03:13;;;;;;;39.17;26.30;;;6.20;99.90;;;;;;5093875;28;20203;-79
2022/03/18 06:05:42;;;;;;;42.63;27.30;;;6.30;99.90;;;;;;5093496;28;20220;-75
2022/03/18 06:13:37;;;;;;;37.63;26.30;;;6.30;99.90;;;;;;5093723;28;20199;-74
2022/03/18 06:16:04;;;;;;;41.13;27.07;;;6.30;99.90;;;;;;5093509;28;20656;-74
2022/03/18 06:18:32;;;;;;;38.13;26.13;;;6.30;99.90;;;;;;5093846;28;20232;-74
2022/03/18 06:21:00;;;;;;;40.90;26.53;;;6.30;99.90;;;;;;5087195;28;20203;-75
2022/03/18 06:23:27;;;;;;;37.97;25.43;;;6.30;99.90;;;;;;5093188;28;20282;-74
2022/03/18 06:25:53;;;;;;;35.10;24.33;;;6.30;99.90;;;;;;5093346;28;20231;-75
2022/03/18 06:28:20;;;;;;;37.33;24.83;;;6.30;99.90;;;;;;5093523;28;20663;-74
2022/03/18 06:30:47;;;;;;;40.77;25.33;;;6.30;99.90;;;;;;5093138;28;20196;-75
2022/03/18 06:33:14;;;;;;;33.97;23.93;;;6.30;99.90;;;;;;5093152;28;20193;-75
2022/03/18 06:35:42;;;;;;;34.43;24.47;;;6.40;99.90;;;;;;5095285;28;20605;-75
2022/03/18 06:38:09;;;;;;;35.50;24.47;;;6.30;99.90;;;;;;5095557;28;20209;-74
2022/03/18 06:40:35;;;;;;;38.40;23.47;;;6.40;99.90;;;;;;5097053;28;20200;-73
2022/03/18 06:43:02;;;;;;;35.30;23.80;;;6.40;99.90;;;;;;5096409;28;20196;-74
2022/03/18 06:45:29;;;;;;;38.60;25.03;;;6.50;99.90;;;;;;5096997;28;20265;-74
2022/03/18 06:47:55;;;;;;;32.07;22.43;;;6.50;99.90;;;;;;5097038;28;20264;-74
2022/03/18 06:50:22;;;;;;;36.37;23.40;;;6.60;99.90;;;;;;5096911;28;20242;-74
2022/03/18 06:52:50;;;;;;;37.13;24.13;;;6.60;99.90;;;;;;5097042;28;20283;-74
2022/03/18 06:55:17;;;;;;;32.23;23.47;;;6.60;99.90;;;;;;5097620;28;20272;-74
2022/03/18 06:57:43;;;;;;;33.53;22.67;;;6.60;99.90;;;;;;5095272;28;20659;-75
2022/03/18 07:00:11;;;;;;;34.23;23.03;;;6.70;99.90;;;;;;5096124;28;20563;-74
2022/03/18 07:02:38;;;;;;;35.17;23.87;;;6.70;99.90;;;;;;5095894;28;20192;-75
2022/03/18 07:05:05;;;;;;;33.30;23.90;;;6.80;99.90;;;;;;5097047;28;20224;-76
2022/03/18 07:07:32;;;;;;;32.90;24.03;;;6.80;99.90;;;;;;5096477;28;20200;-76
2022/03/18 07:10:00;;;;;;;34.47;24.60;;;6.80;99.90;;;;;;5096649;28;20198;-76
2022/03/18 07:12:27;;;;;;;35.80;22.87;;;6.70;99.90;;;;;;5096808;28;20651;-75
2022/03/18 07:14:54;;;;;;;37.60;25.10;;;6.80;99.90;;;;;;5096704;28;20194;-75
2022/03/18 07:20:06;;;;;;;30.57;22.40;;;6.90;99.90;;;;;;5097518;28;20235;-75
2022/03/18 07:22:33;;;;;;;36.23;24.73;;;6.90;99.90;;;;;;5096346;28;20651;-74
2022/03/18 07:25:01;;;;;;;37.67;24.90;;;6.90;99.90;;;;;;5100148;28;20221;-75
2022/03/18 07:27:27;;;;;;;36.67;23.47;;;6.70;99.90;;;;;;5097330;28;20655;-75
2022/03/18 07:29:54;;;;;;;35.67;24.40;;;6.80;99.90;;;;;;5098531;28;20246;-74
2022/03/18 07:32:20;;;;;;;37.30;25.80;;;6.90;99.90;;;;;;5094612;28;20591;-74
2022/03/18 07:34:47;;;;;;;36.63;25.07;;;7.00;99.90;;;;;;5095773;28;20200;-74
2022/03/18 07:37:14;;;;;;;35.53;24.07;;;7.00;99.90;;;;;;5095642;28;20206;-76
2022/03/18 07:39:41;;;;;;;39.80;25.93;;;7.10;99.90;;;;;;5096214;28;20260;-75
2022/03/18 07:42:09;;;;;;;36.67;25.47;;;7.10;99.90;;;;;;5095984;28;20295;-74
2022/03/18 07:44:36;;;;;;;39.57;24.97;;;7.20;99.90;;;;;;5095910;28;20224;-75
2022/03/18 07:47:03;;;;;;;33.00;24.53;;;7.30;99.90;;;;;;5095329;28;20269;-75
2022/03/18 07:49:30;;;;;;;35.80;23.53;;;7.40;99.90;;;;;;5095826;28;20204;-76
2022/03/18 07:51:57;;;;;;;35.77;24.63;;;7.50;99.90;;;;;;5095675;28;20200;-75
2022/03/18 07:54:23;;;;;;;35.70;23.60;;;7.60;99.90;;;;;;5095902;28;20551;-75
2022/03/18 07:56:51;;;;;;;34.93;23.43;;;7.50;99.90;;;;;;5095572;28;20672;-75
2022/03/18 07:59:19;;;;;;;39.40;23.93;;;7.60;99.90;;;;;;5095635;28;20200;-75
2022/03/18 08:01:45;;;;;;;34.10;23.33;;;7.70;99.90;;;;;;5095609;28;20274;-75
2022/03/18 08:04:13;;;;;;;34.90;22.27;;;7.70;99.90;;;;;;5095507;28;20225;-75
2022/03/18 08:06:40;;;;;;;34.27;23.63;;;7.70;99.90;;;;;;5095571;28;20224;-74
2022/03/18 08:09:07;;;;;;;36.10;24.30;;;7.80;99.90;;;;;;5095562;28;20208;-75
2022/03/18 08:11:34;;;;;;;29.60;22.47;;;7.90;99.90;;;;;;5095508;28;20193;-75
2022/03/18 08:14:01;;;;;;;31.57;24.40;;;7.80;99.90;;;;;;5095219;28;20598;-75
2022/03/18 08:16:29;;;;;;;35.73;24.20;;;7.90;99.90;;;;;;5095318;28;20206;-76
2022/03/18 08:18:57;;;;;;;31.10;23.17;;;7.90;99.90;;;;;;5094782;28;20629;-76
2022/03/18 08:21:24;;;;;;;31.23;23.03;;;7.90;99.90;;;;;;5095286;28;20203;-76
2022/03/18 08:23:51;;;;;;;35.23;24.30;;;8.00;99.90;;;;;;5095010;28;20196;-76
2022/03/18 08:26:18;;;;;;;30.90;23.77;;;8.00;99.90;;;;;;5094937;28;20254;-76
2022/03/18 08:28:44;;;;;;;29.47;22.90;;;8.00;99.90;;;;;;5095044;28;20203;-76
2022/03/18 08:31:11;;;;;;;29.63;21.90;;;7.90;99.90;;;;;;5094857;28;20262;-76
2022/03/18 08:33:39;;;;;;;31.43;22.33;;;7.80;99.90;;;;;;5094858;28;20708;-76
2022/03/18 08:36:06;;;;;;;33.13;22.50;;;7.90;99.90;;;;;;5094992;28;20200;-75
2022/03/18 08:38:33;;;;;;;29.33;21.30;;;7.90;99.90;;;;;;5095023;28;20196;-75
2022/03/18 08:40:59;;;;;;;31.23;22.23;;;8.10;99.90;;;;;;5094230;28;20253;-75
2022/03/18 08:43:26;;;;;;;29.83;22.30;;;8.00;99.90;;;;;;5094514;28;20205;-74
2022/03/18 08:45:53;;;;;;;26.53;21.50;;;8.20;99.90;;;;;;5094365;28;20277;-75
2022/03/18 08:48:19;;;;;;;28.63;21.60;;;8.40;99.90;;;;;;5094593;28;21257;-75
2022/03/18 08:50:47;;;;;;;34.97;21.37;;;8.50;99.90;;;;;;5094661;28;20200;-75
2022/03/18 08:53:14;;;;;;;28.27;22.53;;;8.60;99.90;;;;;;5094555;28;20199;-75
2022/03/18 08:55:41;;;;;;;30.43;22.47;;;8.70;99.90;;;;;;5094313;28;20254;-75
2022/03/18 08:58:08;;;;;;;29.37;22.67;;;8.70;99.90;;;;;;5093673;28;20200;-74
2022/03/18 09:00:35;;;;;;;27.27;21.37;;;9.00;99.90;;;;;;5093749;28;20200;-74
2022/03/18 09:03:02;;;;;;;27.97;21.83;;;9.10;99.90;;;;;;5094591;28;20199;-74
2022/03/18 09:05:30;;;;;;;27.40;21.13;;;9.20;99.90;;;;;;5094162;28;20220;-74
2022/03/18 09:07:59;;;;;;;30.30;22.33;;;9.00;99.90;;;;;;5093799;28;20196;-74
2022/03/18 09:10:26;;;;;;;36.80;22.10;;;9.30;99.90;;;;;;5093640;28;20268;-74
2022/03/18 09:12:58;;;;;;;29.27;21.80;;;9.40;99.90;;;;;;5093398;28;20713;-74
2022/03/18 09:15:25;;;;;;;31.43;21.53;;;9.50;99.90;;;;;;5093581;28;20236;-75
2022/03/18 09:17:51;;;;;;;31.40;23.87;;;9.40;99.90;;;;;;5093192;28;20632;-75
2022/03/18 09:20:18;;;;;;;27.70;22.00;;;9.50;99.90;;;;;;5093550;28;20230;-74
2022/03/18 09:22:45;;;;;;;28.00;22.37;;;9.60;99.90;;;;;;5093189;28;20192;-74
2022/03/18 09:25:14;;;;;;;32.00;22.07;;;9.70;99.90;;;;;;5093074;28;20232;-74
2022/03/18 09:27:41;;;;;;;33.43;23.90;;;9.50;99.90;;;;;;5093003;28;20203;-74
2022/03/18 09:30:09;;;;;;;29.20;23.00;;;9.50;99.90;;;;;;5092927;28;20203;-75
2022/03/18 09:32:36;;;;;;;28.57;22.07;;;9.60;99.90;;;;;;5093015;28;20197;-75
2022/03/18 09:35:04;;;;;;;30.90;21.90;;;9.70;99.90;;;;;;5093011;28;20204;-74
2022/03/18 09:37:31;;;;;;;25.20;19.87;;;9.60;99.90;;;;;;5092995;28;20207;-75
2022/03/18 09:40:00;;;;;;;28.27;21.50;;;9.60;99.90;;;;;;5092806;28;20215;-74
2022/03/18 09:42:28;;;;;;;27.00;22.27;;;9.60;99.90;;;;;;5092891;28;20271;-74
2022/03/18 09:44:54;;;;;;;27.73;21.03;;;9.80;99.90;;;;;;5092700;28;20258;-75
2022/03/18 09:47:22;;;;;;;25.20;20.43;;;10.00;99.90;;;;;;5092820;28;20648;-74
2022/03/18 09:49:50;;;;;;;28.77;20.40;;;10.30;99.90;;;;;;5092789;28;20279;-76
2022/03/18 09:52:16;;;;;;;23.30;18.77;;;10.30;99.90;;;;;;5092788;28;20200;-74
2022/03/18 09:54:43;;;;;;;26.83;21.10;;;10.10;99.90;;;;;;5092549;28;20204;-74
2022/03/18 09:57:11;;;;;;;30.33;21.63;;;10.20;99.90;;;;;;5092731;28;20233;-74
2022/03/18 09:59:39;;;;;;;30.43;21.90;;;10.20;99.90;;;;;;5092710;28;20193;-75
2022/03/18 10:02:27;;;;;;;26.47;20.77;;;10.50;99.90;;;;;;5093043;28;20253;-74
2022/03/18 10:04:55;;;;;;;29.17;21.43;;;10.80;99.90;;;;;;5093119;28;20280;-74
2022/03/18 10:07:22;;;;;;;25.93;19.57;;;10.90;99.90;;;;;;5092956;28;20266;-73
2022/03/18 10:09:49;;;;;;;25.77;21.30;;;10.80;99.90;;;;;;5092587;28;20193;-73
2022/03/18 10:12:29;;;;;;;31.67;21.83;;;10.70;99.90;;;;;;5093109;28;20208;-74
2022/03/18 10:15:12;;;;;;;27.97;21.67;;;11.10;99.90;;;;;;5093064;28;20321;-74
2022/03/18 10:17:45;;;;;;;28.50;21.90;;;11.30;99.90;;;;;;5092870;28;20288;-75
2022/03/18 10:20:31;;;;;;;26.27;22.80;;;11.60;99.90;;;;;;5093077;28;20197;-75
2022/03/18 10:23:05;;;;;;;31.30;22.97;;;12.00;99.90;;;;;;5093005;28;20570;-75
2022/03/18 10:25:44;;;;;;;31.57;22.27;;;11.90;99.90;;;;;;5092710;28;20552;-75
2022/03/18 10:28:11;;;;;;;23.93;21.33;;;11.80;99.90;;;;;;5092566;28;20201;-75
2022/03/18 10:30:39;;;;;;;27.93;21.20;;;12.00;99.90;;;;;;5092986;28;20245;-75
2022/03/18 10:33:06;;;;;;;28.00;20.77;;;11.90;99.90;;;;;;5093031;28;20204;-75
2022/03/18 10:38:35;;;;;;;23.60;20.40;;;11.80;99.90;;;;;;5092879;28;20195;-75
2022/03/18 10:41:08;;;;;;;27.60;19.90;;;11.70;99.90;;;;;;5092990;28;20258;-74
2022/03/18 10:43:51;;;;;;;24.10;19.57;;;11.80;99.90;;;;;;5092826;28;20196;-75
2022/03/18 10:46:19;;;;;;;23.63;20.87;;;12.10;99.90;;;;;;5092644;28;20228;-75
2022/03/18 10:49:01;;;;;;;26.20;20.63;;;12.30;99.90;;;;;;5092647;28;20204;-74
2022/03/18 10:51:28;;;;;;;25.17;19.77;;;12.10;99.90;;;;;;5092768;28;20204;-75
2022/03/18 10:53:56;;;;;;;22.73;20.27;;;12.00;99.90;;;;;;5092706;28;20197;-75
2022/03/18 10:56:22;;;;;;;24.57;20.17;;;12.60;99.90;;;;;;5092691;28;20208;-75
2022/03/18 10:58:49;;;;;;;25.53;19.67;;;13.30;99.90;;;;;;5092738;28;20196;-75
2022/03/18 11:01:16;;;;;;;25.88;20.52;;;13.80;99.90;;;;;;5092643;28;20197;-75
2022/03/18 11:03:46;;;;;;;23.10;19.25;;;13.90;99.90;;;;;;5092668;28;20257;-75
2022/03/18 11:06:13;;;;;;;23.30;18.60;;;13.90;99.90;;;;;;5092691;28;20220;-76
2022/03/18 11:08:45;;;;;;;21.95;19.50;;;14.60;99.90;;;;;;5092487;28;20643;-75
2022/03/18 11:11:17;;;;;;;21.17;18.75;;;15.00;97.60;;;;;;5092609;28;20193;-75
2022/03/18 11:13:51;;;;;;;23.30;19.17;;;15.40;96.50;;;;;;5092510;28;20208;-77
2022/03/18 11:16:20;;;;;;;22.88;20.48;;;15.30;92.40;;;;;;5092757;28;20574;-75
2022/03/18 11:18:48;;;;;;;23.75;20.05;;;15.50;91.40;;;;;;5092386;28;20644;-74
2022/03/18 11:21:17;;;;;;;22.60;20.30;;;15.60;90.50;;;;;;5092556;28;20204;-74
2022/03/18 11:23:46;;;;;;;24.73;18.95;;;16.00;86.10;;;;;;5095595;28;20299;-75
2022/03/18 11:26:15;;;;;;;24.77;20.17;;;16.60;83.30;;;;;;5096155;28;20228;-75
2022/03/18 11:28:42;;;;;;;21.80;19.55;;;16.40;77.10;;;;;;5095822;28;20211;-75
2022/03/18 11:31:10;;;;;;;21.88;19.05;;;17.10;74.30;;;;;;5096145;28;20204;-75
2022/03/18 11:33:38;;;;;;;28.33;19.50;;;17.10;70.80;;;;;;5095727;28;20211;-75
2022/03/18 11:36:12;;;;;;;23.27;19.48;;;16.30;71.40;;;;;;5095899;28;20192;-75
2022/03/18 11:39:02;;;;;;;21.55;19.30;;;15.40;76.30;;;;;;5095880;28;20200;-75
2022/03/18 11:41:46;;;;;;;22.60;20.17;;;16.40;74.20;;;;;;5095719;28;20291;-74
2022/03/18 11:44:42;;;;;;;21.60;19.30;;;16.70;70.90;;;;;;5095807;28;20200;-75
2022/03/18 11:47:36;;;;;;;22.42;20.08;;;16.20;70.50;;;;;;5095583;28;20216;-75
2022/03/18 11:50:23;;;;;;;23.25;20.73;;;15.90;70.90;;;;;;5095809;28;20223;-76
2022/03/18 11:52:59;;;;;;;22.73;20.52;;;16.10;72.00;;;;;;5095406;28;20204;-75
2022/03/18 11:55:26;;;;;;;22.48;20.25;;;16.70;69.10;;;;;;5095456;28;20204;-75
2022/03/18 11:57:52;;;;;;;22.23;19.42;;;16.20;68.60;;;;;;5095601;28;20234;-76
2022/03/18 12:00:42;;;;;;;24.65;20.75;;;16.00;71.30;;;;;;5095486;28;20204;-75
2022/03/18 12:03:10;;;;;;;22.83;20.55;;;16.30;70.80;;;;;;5095318;28;20200;-75
2022/03/18 12:05:52;;;;;;;22.63;20.20;;;17.30;67.20;;;;;;5095309;28;20196;-75
2022/03/18 12:09:01;;;;;;;22.92;20.40;;;15.90;66.70;;;;;;5095487;28;20303;-76
2022/03/18 12:11:35;;;;;;;22.88;20.33;;;16.70;69.30;;;;;;5091635;28;20200;-76
2022/03/18 12:14:02;;;;;;;25.73;19.83;;;16.90;65.00;;;;;;5095136;28;20218;-76
2022/03/18 12:16:30;;;;;;;22.25;19.88;;;16.60;67.00;;;;;;5094829;28;20204;-75
2022/03/18 12:18:59;;;;;;;24.02;21.45;;;16.30;65.20;;;;;;5104877;28;20233;-75
2022/03/18 12:21:37;;;;;;;25.08;20.77;;;16.30;66.20;;;;;;5098265;28;20224;-75
2022/03/18 12:24:10;;;;;;;25.00;21.65;;;16.00;67.60;;;;;;5095314;28;20200;-75
2022/03/18 12:26:38;;;;;;;22.75;20.35;;;16.10;67.50;;;;;;5094936;28;20292;-75
2022/03/18 12:29:06;;;;;;;23.40;20.95;;;16.60;67.20;;;;;;5094764;28;20713;-77
2022/03/18 12:31:33;;;;;;;23.27;20.83;;;17.20;64.40;;;;;;5094971;28;20201;-77
2022/03/18 12:34:01;;;;;;;23.95;21.55;;;17.80;61.80;;;;;;5094584;28;20196;-76
2022/03/18 12:36:28;;;;;;;23.08;20.77;;;18.90;58.40;;;;;;5094922;28;20206;-77
2022/03/18 12:39:11;;;;;;;23.63;21.35;;;19.00;55.80;;;;;;5094683;28;20246;-77
2022/03/18 12:41:38;;;;;;;24.65;22.35;;;18.10;54.70;;;;;;5093386;28;20912;-76
2022/03/18 12:44:05;;;;;;;24.85;22.35;;;18.10;56.00;;;;;;5094415;28;20192;-76
2022/03/18 12:46:33;;;;;;;24.05;21.65;;;17.60;55.50;;;;;;5094611;28;20226;-77
2022/03/18 12:49:00;;;;;;;24.90;22.33;;;17.30;57.40;;;;;;5094563;28;20563;-76
2022/03/18 12:51:27;;;;;;;23.35;20.95;;;17.40;57.20;;;;;;5094537;28;20197;-75
2022/03/18 12:53:53;;;;;;;24.70;22.23;;;17.50;56.60;;;;;;5094281;28;20654;-75
2022/03/18 12:56:22;;;;;;;25.70;23.08;;;16.70;57.40;;;;;;5094501;28;20258;-76
2022/03/18 12:58:49;;;;;;;27.38;21.85;;;16.80;58.50;;;;;;5094412;28;20200;-76
2022/03/18 13:01:16;;;;;;;24.02;21.65;;;17.10;58.30;;;;;;5094447;28;20209;-76
2022/03/18 13:03:50;;;;;;;22.92;20.58;;;17.60;56.10;;;;;;5094367;28;20204;-76